Delta Virtual Airport Information Service

Leipzig Halle Airport

ICAO: EDDP Country: Germany
Latitude: 51.4324 Longitude: 12.2416
Latest Arrival : DAC461 (EHAM-EDDP) Latest Departure : DAC7877 (EDDP-EGNX)


WX CaptureLIVE
Data provided by noaa.gov | Fetched at 10:21:21

METAR : EDDP 281450Z 35012KT CAVOK 19/04 Q1028 NOSIG

TAF : EDDP 281100Z 2812/2912 35009KT CAVOK BECMG 2909/2912 05008KT


Runway Data for EDDP
Data provided by openaviationdata.com

Runway ID Mag Var Hdg Length Elevation Surface ILS Freq ILS Id ILS Slope
8 1 84° 11786 ft 427 ft Concrete 108.55 ILNE 3
10 1 104° 8183 ft 427 ft Concrete 111.9 ILZE 3
26 1 264° 11786 ft 427 ft Concrete 108.35 ILNW 3
28 1 284° 8183 ft 427 ft Concrete 110.3 ILZW 3

Leipzig Halle Airport, Germany
Use only for reference purposes



Not for navigational purposes.